Time;durP1;ratioP1;P1;durP2;ratioP2;P2;SDS_P1;SDS_P2;PMS_P1;PMS_P2;Temp;Humidity;BMP_temperature;BMP_pressure;BME280_temperature;BME280_humidity;BME280_pressure;Samples;Min_cycle;Max_cycle;Signal;HPM_P1;HPM_P2
2024/04/18 00:02:09;;;;;;;6.90;3.90;;;;;;;;;;5416585;26;20436;-87
2024/04/18 00:04:35;;;;;;;5.07;4.03;;;;;;;;;;5417808;26;20505;-90
2024/04/18 00:07:02;;;;;;;4.77;3.80;;;;;;;;;;5417556;26;20997;-89
2024/04/18 00:09:28;;;;;;;5.53;4.20;;;;;;;;;;5417124;26;20538;-87
2024/04/18 00:11:54;;;;;;;6.77;3.77;;;;;;;;;;5417719;26;20519;-86
2024/04/18 00:14:20;;;;;;;7.57;4.10;;;;;;;;;;5417278;26;20437;-89
2024/04/18 00:16:45;;;;;;;5.10;4.60;;;;;;;;;;5417366;26;20433;-90
2024/04/18 00:19:11;;;;;;;6.33;4.53;;;;;;;;;;5417232;26;20508;-88
2024/04/18 00:21:37;;;;;;;7.40;4.20;;;;;;;;;;5417128;26;20579;-84
2024/04/18 00:24:03;;;;;;;5.03;4.10;;;;;;;;;;5415991;26;20452;-88
2024/04/18 00:26:29;;;;;;;7.50;5.37;;;;;;;;;;5417751;26;20442;-89
2024/04/18 00:28:55;;;;;;;5.07;3.83;;;;;;;;;;5420592;26;20497;-92
2024/04/18 00:31:21;;;;;;;7.17;4.47;;;;;;;;;;5421462;26;20551;-90
2024/04/18 00:33:47;;;;;;;5.70;3.70;;;;;;;;;;5421164;26;21028;-91
2024/04/18 00:36:13;;;;;;;6.37;4.57;;;;;;;;;;5421144;26;20441;-90
2024/04/18 00:38:39;;;;;;;4.67;3.77;;;;;;;;;;5420906;26;20437;-90
2024/04/18 00:41:06;;;;;;;6.83;4.93;;;;;;;;;;5420856;26;20451;-90
2024/04/18 00:43:32;;;;;;;5.10;4.60;;;;;;;;;;5412564;26;20453;-91
2024/04/18 00:45:59;;;;;;;4.90;3.57;;;;;;;;;;5390836;26;20488;-88
2024/04/18 00:48:26;;;;;;;5.00;3.93;;;;;;;;;;5385464;26;20500;-89
2024/04/18 00:50:54;;;;;;;6.40;4.60;;;;;;;;;;5385221;26;20442;-89
2024/04/18 00:53:20;;;;;;;6.83;4.90;;;;;;;;;;5383332;26;20438;-86
2024/04/18 00:55:46;;;;;;;8.40;4.73;;;;;;;;;;5384366;26;21053;-90
2024/04/18 00:58:12;;;;;;;7.47;5.43;;;;;;;;;;5402458;26;20469;-87
2024/04/18 01:00:39;;;;;;;9.27;5.93;;;;;;;;;;5399953;26;20504;-89
2024/04/18 01:03:05;;;;;;;6.43;4.17;;;;;;;;;;5384792;26;20482;-89
2024/04/18 01:05:32;;;;;;;8.50;4.97;;;;;;;;;;5383470;26;20446;-89
2024/04/18 01:07:58;;;;;;;5.93;4.43;;;;;;;;;;5387012;26;20525;-91
2024/04/18 01:10:26;;;;;;;6.63;5.47;;;;;;;;;;5420189;26;20805;-89
2024/04/18 01:12:58;;;;;;;9.90;5.47;;;;;;;;;;5420786;26;20516;-87
2024/04/18 01:15:26;;;;;;;6.37;4.50;;;;;;;;;;5419428;26;20445;-91
2024/04/18 01:17:52;;;;;;;7.67;5.30;;;;;;;;;;5419209;26;21012;-92
2024/04/18 01:20:18;;;;;;;8.67;5.73;;;;;;;;;;5420383;26;20453;-93
2024/04/18 01:22:44;;;;;;;6.10;5.23;;;;;;;;;;5420653;26;20835;-90
2024/04/18 01:25:10;;;;;;;6.73;5.20;;;;;;;;;;5420262;26;20441;-90
2024/04/18 01:27:36;;;;;;;7.93;5.40;;;;;;;;;;5420892;26;20503;-90
2024/04/18 01:30:02;;;;;;;5.97;5.13;;;;;;;;;;5420477;26;20961;-90
2024/04/18 01:32:29;;;;;;;7.03;5.63;;;;;;;;;;5420136;26;20457;-90
2024/04/18 01:34:55;;;;;;;8.97;5.27;;;;;;;;;;5418786;26;20441;-90
2024/04/18 01:37:21;;;;;;;8.17;5.97;;;;;;;;;;5384262;26;20446;-87
2024/04/18 01:39:46;;;;;;;8.93;5.00;;;;;;;;;;5382121;26;20446;-88
2024/04/18 01:42:12;;;;;;;5.97;5.37;;;;;;;;;;5382970;26;21105;-89
2024/04/18 01:44:38;;;;;;;6.23;5.60;;;;;;;;;;5382319;26;20450;-88
2024/04/18 01:47:04;;;;;;;8.33;5.57;;;;;;;;;;5383840;26;20451;-89
2024/04/18 01:49:30;;;;;;;7.50;5.10;;;;;;;;;;5383648;26;20990;-88
2024/04/18 01:51:56;;;;;;;8.23;5.23;;;;;;;;;;5414398;26;20465;-87
2024/04/18 01:54:22;;;;;;;6.03;4.50;;;;;;;;;;5418457;26;20582;-82
2024/04/18 01:56:48;;;;;;;5.80;5.20;;;;;;;;;;5419611;26;20460;-90
2024/04/18 01:59:14;;;;;;;6.27;5.67;;;;;;;;;;5418033;26;21041;-90
2024/04/18 02:01:40;;;;;;;7.27;5.87;;;;;;;;;;5419890;26;20467;-89
2024/04/18 02:04:05;;;;;;;6.20;5.03;;;;;;;;;;5419524;26;20861;-81
2024/04/18 02:06:31;;;;;;;6.97;6.27;;;;;;;;;;5419407;26;20461;-90
2024/04/18 02:08:57;;;;;;;6.90;5.40;;;;;;;;;;5419054;26;20841;-87
2024/04/18 02:11:23;;;;;;;7.10;5.50;;;;;;;;;;5419498;26;20460;-89
2024/04/18 02:13:49;;;;;;;8.23;5.90;;;;;;;;;;5419403;26;20470;-91
2024/04/18 02:16:15;;;;;;;8.30;7.07;;;;;;;;;;5399823;26;20855;-89
2024/04/18 02:18:41;;;;;;;7.90;5.67;;;;;;;;;;5417107;26;20464;-89
2024/04/18 02:21:07;;;;;;;7.07;6.17;;;;;;;;;;5424411;26;20477;-87
2024/04/18 02:23:33;;;;;;;8.33;6.33;;;;;;;;;;5417895;26;21023;-85
2024/04/18 02:25:58;;;;;;;11.27;7.33;;;;;;;;;;5411501;26;20517;-86
2024/04/18 02:28:24;;;;;;;9.10;7.10;;;;;;;;;;5418434;26;20516;-88
2024/04/18 02:30:50;;;;;;;9.87;7.20;;;;;;;;;;5418620;26;21000;-87
2024/04/18 02:33:16;;;;;;;7.40;5.90;;;;;;;;;;5418978;26;20561;-85
2024/04/18 02:35:42;;;;;;;7.60;6.30;;;;;;;;;;5418779;26;20828;-84
2024/04/18 02:38:08;;;;;;;7.67;6.27;;;;;;;;;;5418553;26;20939;-85
2024/04/18 02:40:34;;;;;;;7.30;6.10;;;;;;;;;;5417957;26;20473;-87
2024/04/18 02:43:01;;;;;;;7.37;6.30;;;;;;;;;;5418389;26;20469;-89
2024/04/18 02:45:27;;;;;;;6.33;5.20;;;;;;;;;;5417025;26;20472;-86
2024/04/18 02:47:53;;;;;;;8.00;6.30;;;;;;;;;;5418705;26;20511;-90
2024/04/18 02:50:19;;;;;;;9.77;6.47;;;;;;;;;;5417181;26;20529;-84
2024/04/18 02:52:45;;;;;;;7.23;5.80;;;;;;;;;;5418920;26;20463;-85
2024/04/18 02:55:10;;;;;;;8.70;6.60;;;;;;;;;;5418297;26;20911;-85
2024/04/18 02:57:36;;;;;;;7.43;5.97;;;;;;;;;;5417043;26;20528;-87
2024/04/18 03:00:02;;;;;;;8.60;6.50;;;;;;;;;;5418522;26;20985;-86
2024/04/18 03:02:28;;;;;;;9.20;6.87;;;;;;;;;;5418675;26;20478;-89
2024/04/18 03:04:54;;;;;;;7.80;5.93;;;;;;;;;;5418630;26;21053;-88
2024/04/18 03:07:20;;;;;;;8.60;5.80;;;;;;;;;;5417000;26;20483;-89
2024/04/18 03:09:46;;;;;;;9.33;6.07;;;;;;;;;;5418164;26;20980;-85
2024/04/18 03:12:12;;;;;;;9.27;6.40;;;;;;;;;;5418508;26;20507;-89
2024/04/18 03:14:42;;;;;;;8.40;6.30;;;;;;;;;;5418516;26;20460;-87
2024/04/18 03:17:08;;;;;;;10.17;6.23;;;;;;;;;;5418040;26;20461;-85
2024/04/18 03:19:34;;;;;;;8.93;6.27;;;;;;;;;;5418163;26;20997;-89
2024/04/18 03:22:00;;;;;;;8.70;6.50;;;;;;;;;;5418019;26;20534;-84
2024/04/18 03:24:26;;;;;;;11.20;6.13;;;;;;;;;;5417732;26;20457;-87
2024/04/18 03:26:52;;;;;;;8.30;6.00;;;;;;;;;;5416275;26;20577;-89
2024/04/18 03:29:18;;;;;;;8.27;6.17;;;;;;;;;;5417980;26;20911;-85
2024/04/18 03:31:47;;;;;;;8.40;7.50;;;;;;;;;;5418196;26;20469;-89
2024/04/18 03:34:12;;;;;;;8.03;6.60;;;;;;;;;;5417758;26;20461;-86
2024/04/18 03:36:49;;;;;;;10.20;6.27;;;;;;;;;;5417976;26;20513;-87
2024/04/18 03:39:14;;;;;;;7.77;6.13;;;;;;;;;;5412108;26;20520;-88
2024/04/18 03:41:40;;;;;;;11.83;7.10;;;;;;;;;;5415947;26;20468;-85
2024/04/18 03:44:07;;;;;;;8.20;6.53;;;;;;;;;;5417585;26;20473;-88
2024/04/18 03:46:33;;;;;;;9.33;6.90;;;;;;;;;;5417411;26;20509;-88
2024/04/18 03:49:00;;;;;;;9.27;7.30;;;;;;;;;;5417541;26;20476;-87
2024/04/18 03:51:27;;;;;;;9.53;7.37;;;;;;;;;;5417535;26;20984;-89
2024/04/18 03:53:53;;;;;;;7.40;6.47;;;;;;;;;;5417091;26;20461;-86
2024/04/18 03:56:19;;;;;;;7.50;6.27;;;;;;;;;;5417364;26;20574;-89
2024/04/18 03:58:45;;;;;;;9.30;7.63;;;;;;;;;;5417346;26;20461;-88
2024/04/18 04:01:11;;;;;;;10.73;8.53;;;;;;;;;;5417030;26;20513;-84
2024/04/18 04:03:37;;;;;;;6.73;6.10;;;;;;;;;;5419589;26;20466;-85
2024/04/18 04:06:03;;;;;;;8.90;6.83;;;;;;;;;;5419106;26;20484;-89
2024/04/18 04:08:29;;;;;;;10.10;8.37;;;;;;;;;;5420473;26;20996;-85
2024/04/18 04:10:55;;;;;;;7.40;6.20;;;;;;;;;;5419992;26;20484;-86
2024/04/18 04:13:20;;;;;;;10.43;8.37;;;;;;;;;;5420448;26;20520;-86
2024/04/18 04:15:47;;;;;;;8.27;7.33;;;;;;;;;;5419584;26;20464;-84
2024/04/18 04:18:13;;;;;;;8.67;7.40;;;;;;;;;;5419498;26;20575;-85
2024/04/18 04:20:39;;;;;;;7.70;5.70;;;;;;;;;;5419490;26;20476;-82
2024/04/18 04:23:05;;;;;;;8.80;7.27;;;;;;;;;;5419324;26;21056;-86
2024/04/18 04:25:30;;;;;;;8.10;6.97;;;;;;;;;;5417146;26;20514;-85
2024/04/18 04:27:56;;;;;;;8.90;8.00;;;;;;;;;;5418920;26;20461;-86
2024/04/18 04:30:22;;;;;;;9.30;7.57;;;;;;;;;;5417628;26;20518;-86
2024/04/18 04:32:48;;;;;;;8.60;7.70;;;;;;;;;;5419339;26;20513;-86
2024/04/18 04:35:14;;;;;;;10.40;7.23;;;;;;;;;;5419417;26;20461;-84
2024/04/18 04:37:40;;;;;;;13.02;9.50;;;;;;;;;;5417960;26;20348;-85
2024/04/18 04:40:06;;;;;;;9.73;8.73;;;;;;;;;;5418956;26;20226;-87
2024/04/18 04:42:35;;;;;;;11.20;8.00;;;;;;;;;;5418030;26;20464;-88
2024/04/18 04:45:01;;;;;;;13.00;8.40;;;;;;;;;;5417875;26;20469;-87
2024/04/18 04:47:27;;;;;;;12.73;7.93;;;;;;;;;;5419300;26;20456;-88
2024/04/18 04:49:53;;;;;;;10.50;7.60;;;;;;;;;;5419321;26;20938;-86
2024/04/18 04:52:18;;;;;;;11.13;8.20;;;;;;;;;;5419222;26;20465;-87
2024/04/18 04:54:46;;;;;;;11.60;8.30;;;;;;;;;;5418790;26;20515;-87
2024/04/18 04:57:13;;;;;;;8.80;6.33;;;;;;;;;;5419368;26;20480;-87
2024/04/18 04:59:39;;;;;;;8.20;6.93;;;;;;;;;;5417779;26;20468;-87
2024/04/18 05:02:05;;;;;;;10.00;7.30;;;;;;;;;;5419598;26;20452;-85
2024/04/18 05:04:31;;;;;;;13.17;10.23;;;;;;;;;;5419316;26;20457;-86
2024/04/18 05:06:57;;;;;;;17.23;9.17;;;;;;;;;;5419652;26;20513;-89
2024/04/18 05:09:23;;;;;;;12.23;8.27;;;;;;;;;;5417912;26;20472;-89
2024/04/18 05:11:49;;;;;;;13.77;8.40;;;;;;;;;;5419614;26;20525;-87
2024/04/18 05:14:15;;;;;;;13.83;10.07;;;;;;;;;;5418638;26;20460;-90
2024/04/18 05:16:41;;;;;;;12.00;8.97;;;;;;;;;;5420343;26;20451;-88
2024/04/18 05:19:07;;;;;;;11.33;8.87;;;;;;;;;;5417700;26;20465;-89
2024/04/18 05:21:33;;;;;;;11.00;8.03;;;;;;;;;;5419428;26;21051;-89
2024/04/18 05:23:58;;;;;;;10.87;7.87;;;;;;;;;;5419081;26;20504;-87
2024/04/18 05:26:31;;;;;;;13.40;9.73;;;;;;;;;;5417952;26;20461;-91
2024/04/18 05:31:42;;;;;;;12.50;9.20;;;;;;;;;;5414103;26;20542;-90
2024/04/18 05:34:08;;;;;;;10.70;9.20;;;;;;;;;;5420148;26;20465;-91
2024/04/18 05:36:34;;;;;;;13.83;9.73;;;;;;;;;;5420004;26;20818;-91
2024/04/18 05:39:03;;;;;;;10.87;9.60;;;;;;;;;;5419604;26;20477;-90
2024/04/18 05:41:29;;;;;;;9.27;7.63;;;;;;;;;;5420125;26;20492;-88
2024/04/18 05:43:55;;;;;;;9.20;7.70;;;;;;;;;;5419377;26;20490;-88
2024/04/18 05:46:21;;;;;;;8.03;6.87;;;;;;;;;;5419383;26;20530;-89
2024/04/18 05:48:47;;;;;;;10.83;8.50;;;;;;;;;;5419363;26;20870;-90
2024/04/18 05:51:13;;;;;;;8.40;6.90;;;;;;;;;;5419349;26;20480;-90
2024/04/18 05:53:40;;;;;;;7.00;5.80;;;;;;;;;;5419186;26;20465;-90
2024/04/18 05:56:06;;;;;;;6.60;5.40;;;;;;;;;;5417916;26;20512;-90
2024/04/18 05:58:36;;;;;;;8.30;6.23;;;;;;;;;;5419664;26;20989;-91
2024/04/18 06:01:05;;;;;;;9.07;7.23;;;;;;;;;;5419256;26;20544;-91
2024/04/18 06:03:32;;;;;;;7.10;5.53;;;;;;;;;;5395431;26;20507;-90
2024/04/18 06:05:58;;;;;;;7.03;6.33;;;;;;;;;;5419153;26;21032;-89
2024/04/18 06:08:24;;;;;;;9.70;6.77;;;;;;;;;;5416912;26;20491;-91
2024/04/18 06:10:50;;;;;;;6.57;5.73;;;;;;;;;;5414217;26;20800;-91
2024/04/18 06:13:16;;;;;;;7.57;5.10;;;;;;;;;;5418855;26;20500;-91
2024/04/18 06:15:43;;;;;;;7.07;5.90;;;;;;;;;;5418841;26;20528;-91
2024/04/18 06:18:09;;;;;;;8.33;6.40;;;;;;;;;;5418920;26;20462;-89
2024/04/18 06:20:50;;;;;;;8.83;6.80;;;;;;;;;;5418588;26;21009;-89
2024/04/18 06:23:16;;;;;;;6.77;4.53;;;;;;;;;;5399525;26;20504;-85
2024/04/18 06:25:42;;;;;;;8.73;5.67;;;;;;;;;;5417335;26;20467;-86
2024/04/18 06:28:09;;;;;;;10.87;6.50;;;;;;;;;;5418013;26;20516;-87
2024/04/18 06:30:37;;;;;;;8.20;6.57;;;;;;;;;;5417587;26;20464;-83
2024/04/18 06:33:02;;;;;;;8.20;7.13;;;;;;;;;;5417534;26;20470;-84
2024/04/18 06:35:28;;;;;;;6.87;5.70;;;;;;;;;;5417335;26;20596;-83
2024/04/18 06:37:54;;;;;;;6.43;5.77;;;;;;;;;;5417723;26;20633;-84
2024/04/18 06:40:23;;;;;;;6.30;5.70;;;;;;;;;;5416844;26;20482;-84
2024/04/18 06:42:49;;;;;;;6.00;5.50;;;;;;;;;;5417255;26;20581;-82
2024/04/18 06:45:15;;;;;;;6.20;5.30;;;;;;;;;;5416917;26;20465;-87
2024/04/18 06:47:41;;;;;;;5.40;4.80;;;;;;;;;;5416808;26;20550;-82
2024/04/18 06:50:07;;;;;;;5.30;3.60;;;;;;;;;;5417408;26;20460;-84
2024/04/18 06:52:33;;;;;;;6.10;4.50;;;;;;;;;;5417173;26;20675;-82
2024/04/18 06:54:59;;;;;;;4.23;3.83;;;;;;;;;;5416896;26;20475;-80
2024/04/18 06:57:25;;;;;;;4.63;4.23;;;;;;;;;;5417211;26;20477;-80
2024/04/18 06:59:52;;;;;;;3.57;3.23;;;;;;;;;;5415423;26;20232;-81
2024/04/18 07:02:18;;;;;;;5.33;4.27;;;;;;;;;;5415391;26;20262;-81
2024/04/18 07:04:45;;;;;;;3.60;3.20;;;;;;;;;;5417109;26;20468;-82
2024/04/18 07:07:11;;;;;;;3.97;3.57;;;;;;;;;;5412780;26;20233;-81
2024/04/18 07:09:37;;;;;;;5.47;4.43;;;;;;;;;;5416769;26;20464;-80
2024/04/18 07:12:03;;;;;;;4.53;4.10;;;;;;;;;;5417114;26;20462;-82
2024/04/18 07:14:29;;;;;;;4.57;4.17;;;;;;;;;;5416937;26;20515;-81
2024/04/18 07:16:55;;;;;;;5.30;4.20;;;;;;;;;;5417174;26;20462;-80
2024/04/18 07:19:21;;;;;;;5.10;4.70;;;;;;;;;;5417132;26;20287;-81
2024/04/18 07:21:47;;;;;;;3.90;3.50;;;;;;;;;;5416914;26;20271;-84
2024/04/18 07:24:13;;;;;;;6.10;4.07;;;;;;;;;;5416558;26;20508;-85
2024/04/18 07:26:39;;;;;;;4.30;3.70;;;;;;;;;;5415129;26;20841;-83
2024/04/18 07:29:05;;;;;;;4.97;4.20;;;;;;;;;;5416717;26;20574;-86
2024/04/18 07:31:31;;;;;;;5.50;3.87;;;;;;;;;;5416861;26;20460;-85
2024/04/18 07:33:57;;;;;;;5.60;3.60;;;;;;;;;;5413515;26;20485;-83
2024/04/18 07:36:23;;;;;;;4.83;3.80;;;;;;;;;;5416244;26;20231;-80
2024/04/18 07:38:49;;;;;;;4.43;3.20;;;;;;;;;;5415343;26;20715;-81
2024/04/18 07:41:17;;;;;;;3.70;3.10;;;;;;;;;;5416708;26;20734;-81
2024/04/18 07:43:43;;;;;;;3.50;2.40;;;;;;;;;;5416629;26;20591;-83
2024/04/18 07:46:09;;;;;;;3.57;2.90;;;;;;;;;;5416674;26;20507;-87
2024/04/18 07:48:34;;;;;;;3.50;3.00;;;;;;;;;;5416326;26;20590;-81
2024/04/18 07:51:00;;;;;;;4.73;3.40;;;;;;;;;;5416563;26;20472;-87
2024/04/18 07:53:27;;;;;;;6.00;4.47;;;;;;;;;;5416161;26;20264;-81
2024/04/18 07:55:52;;;;;;;5.20;4.13;;;;;;;;;;5416357;26;20278;-80
2024/04/18 07:58:19;;;;;;;4.20;3.40;;;;;;;;;;5416302;26;21004;-84
2024/04/18 08:00:48;;;;;;;2.90;2.50;;;;;;;;;;5412390;26;20660;-89
2024/04/18 08:03:14;;;;;;;3.13;2.00;;;;;;;;;;5417371;26;20532;-92
2024/04/18 08:05:40;;;;;;;4.37;2.20;;;;;;;;;;5418196;26;21008;-83
2024/04/18 08:08:06;;;;;;;3.63;1.97;;;;;;;;;;5420656;26;20270;-84
2024/04/18 08:10:32;;;;;;;4.50;1.83;;;;;;;;;;5419169;26;20273;-90
2024/04/18 08:12:58;;;;;;;4.37;2.07;;;;;;;;;;5415906;26;20582;-86
2024/04/18 08:15:24;;;;;;;2.87;1.83;;;;;;;;;;5416814;26;20469;-91
2024/04/18 08:17:49;;;;;;;2.97;1.73;;;;;;;;;;5421037;26;20239;-93
2024/04/18 08:20:15;;;;;;;1.77;0.60;;;;;;;;;;5417859;26;20322;-86
2024/04/18 08:22:41;;;;;;;1.87;1.30;;;;;;;;;;5419066;26;20223;-92
2024/04/18 08:25:07;;;;;;;2.97;1.40;;;;;;;;;;5417338;26;20254;-85
2024/04/18 08:27:33;;;;;;;8.07;1.70;;;;;;;;;;5418348;26;20339;-85
2024/04/18 08:29:59;;;;;;;2.47;1.10;;;;;;;;;;5416622;26;20235;-91
2024/04/18 08:32:25;;;;;;;3.13;1.37;;;;;;;;;;5400172;26;20866;-92
2024/04/18 08:34:51;;;;;;;3.03;1.33;;;;;;;;;;5418475;26;20226;-86
2024/04/18 08:37:17;;;;;;;1.17;0.63;;;;;;;;;;5418453;26;20273;-92
2024/04/18 08:39:43;;;;;;;3.20;0.80;;;;;;;;;;5419274;26;20808;-90
2024/04/18 08:42:12;;;;;;;3.03;1.17;;;;;;;;;;5417690;26;20227;-94
2024/04/18 08:44:38;;;;;;;3.50;1.77;;;;;;;;;;5420297;26;20215;-94
2024/04/18 08:47:05;;;;;;;3.23;1.20;;;;;;;;;;5418722;26;20461;-93
2024/04/18 08:49:32;;;;;;;3.03;1.00;;;;;;;;;;5420402;26;20980;-90
2024/04/18 08:51:59;;;;;;;2.40;1.03;;;;;;;;;;5421373;26;20472;-93
2024/04/18 08:54:30;;;;;;;3.07;1.00;;;;;;;;;;5416750;26;20449;-94
2024/04/18 08:56:57;;;;;;;1.50;0.40;;;;;;;;;;5421738;26;20924;-86
2024/04/18 08:59:23;;;;;;;2.10;0.70;;;;;;;;;;5420558;26;20981;-89
2024/04/18 09:01:49;;;;;;;3.13;0.87;;;;;;;;;;5419578;26;20456;-91
2024/04/18 09:04:15;;;;;;;2.60;1.27;;;;;;;;;;5419463;26;21012;-91
2024/04/18 09:06:41;;;;;;;1.40;0.70;;;;;;;;;;5419449;26;20544;-91
2024/04/18 09:09:09;;;;;;;1.43;0.87;;;;;;;;;;5419609;26;20231;-91
2024/04/18 09:11:35;;;;;;;3.00;1.10;;;;;;;;;;5420327;26;20303;-92
2024/04/18 09:14:01;;;;;;;3.07;1.57;;;;;;;;;;5420073;26;20456;-93
2024/04/18 09:16:28;;;;;;;3.10;1.07;;;;;;;;;;5420193;26;20452;-89
2024/04/18 09:18:54;;;;;;;2.40;0.83;;;;;;;;;;5421053;26;20449;-91
2024/04/18 09:21:20;;;;;;;2.93;0.70;;;;;;;;;;5418461;26;20575;-92
2024/04/18 09:23:46;;;;;;;2.50;0.97;;;;;;;;;;5416782;26;20488;-90
2024/04/18 09:26:12;;;;;;;1.37;0.70;;;;;;;;;;5385140;26;20561;-90
2024/04/18 09:28:38;;;;;;;3.67;1.00;;;;;;;;;;5387816;26;20449;-91
2024/04/18 09:31:04;;;;;;;3.33;0.70;;;;;;;;;;5420716;26;20691;-90
2024/04/18 09:33:33;;;;;;;2.43;0.60;;;;;;;;;;5421241;26;21079;-92
2024/04/18 09:36:00;;;;;;;2.70;0.90;;;;;;;;;;5420247;26;21012;-91
2024/04/18 09:38:28;;;;;;;3.73;1.40;;;;;;;;;;5419669;26;20445;-92
2024/04/18 09:41:23;;;;;;;5.87;1.90;;;;;;;;;;5419057;26;20504;-90
2024/04/18 09:44:07;;;;;;;2.97;1.00;;;;;;;;;;5411860;26;20436;-92
2024/04/18 09:46:33;;;;;;;1.90;0.90;;;;;;;;;;5420417;26;20534;-91
2024/04/18 09:48:59;;;;;;;2.93;0.77;;;;;;;;;;5414485;26;20517;-88
2024/04/18 09:51:27;;;;;;;3.70;2.30;;;;;;;;;;5412908;26;20529;-91
2024/04/18 09:53:53;;;;;;;3.90;0.93;;;;;;;;;;5418927;26;20504;-92
2024/04/18 09:56:23;;;;;;;2.33;0.97;;;;;;;;;;5417963;26;20582;-91
2024/04/18 09:58:50;;;;;;;2.50;1.57;;;;;;;;;;5420101;26;20514;-89
2024/04/18 10:01:16;;;;;;;2.37;1.20;;;;;;;;;;5417948;26;20517;-89
2024/04/18 10:03:42;;;;;;;1.90;1.10;;;;;;;;;;5419043;26;20473;-86
2024/04/18 10:06:09;;;;;;;2.27;0.70;;;;;;;;;;5416969;26;20537;-89
2024/04/18 10:08:37;;;;;;;1.93;1.40;;;;;;;;;;5405169;26;20542;-92
2024/04/18 10:11:03;;;;;;;2.30;0.90;;;;;;;;;;5409930;26;20509;-92
2024/04/18 10:13:29;;;;;;;3.60;1.57;;;;;;;;;;5419360;26;20468;-91
2024/04/18 10:16:12;;;;;;;3.17;2.00;;;;;;;;;;5417468;26;20472;-90
2024/04/18 10:18:38;;;;;;;1.90;1.07;;;;;;;;;;5411808;26;20239;-85
2024/04/18 10:21:14;;;;;;;2.30;1.10;;;;;;;;;;5406215;26;20531;-89
2024/04/18 10:23:53;;;;;;;1.33;0.50;;;;;;;;;;5409336;26;20961;-90
2024/04/18 10:26:20;;;;;;;1.43;0.63;;;;;;;;;;5409984;26;20464;-92
2024/04/18 10:28:47;;;;;;;2.17;0.87;;;;;;;;;;5419488;26;20968;-87
2024/04/18 10:31:14;;;;;;;2.03;1.27;;;;;;;;;;5419218;26;20468;-85
2024/04/18 10:33:40;;;;;;;2.10;0.67;;;;;;;;;;5418264;26;20825;-90
2024/04/18 10:36:10;;;;;;;2.43;1.10;;;;;;;;;;5417851;26;20968;-90
2024/04/18 10:38:41;;;;;;;2.30;0.53;;;;;;;;;;5395006;26;20797;-91
2024/04/18 10:41:09;;;;;;;5.40;0.60;;;;;;;;;;5418550;26;20544;-90
2024/04/18 10:43:36;;;;;;;0.90;0.30;;;;;;;;;;5412436;26;20517;-93
2024/04/18 10:46:02;;;;;;;2.50;0.83;;;;;;;;;;5417876;26;20513;-87
2024/04/18 10:48:28;;;;;;;0.80;0.30;;;;;;;;;;5409013;26;20453;-92
2024/04/18 10:50:54;;;;;;;1.23;0.20;;;;;;;;;;5418233;26;20521;-91
2024/04/18 10:53:20;;;;;;;1.17;0.20;;;;;;;;;;5417761;26;20368;-88
2024/04/18 10:55:46;;;;;;;1.17;0.23;;;;;;;;;;5417509;26;20730;-83
2024/04/18 10:58:15;;;;;;;2.40;0.57;;;;;;;;;;5418214;26;20464;-87
2024/04/18 11:00:43;;;;;;;1.57;0.50;;;;;;;;;;5409107;26;20232;-81
2024/04/18 11:03:09;;;;;;;2.90;0.40;;;;;;;;;;5382359;26;20788;-80
2024/04/18 11:05:37;;;;;;;4.27;1.00;;;;;;;;;;5380735;26;20512;-82
2024/04/18 11:08:03;;;;;;;0.87;0.20;;;;;;;;;;5380253;26;20568;-82
2024/04/18 11:10:29;;;;;;;1.13;0.40;;;;;;;;;;5380408;26;20470;-81
2024/04/18 11:12:56;;;;;;;2.97;0.37;;;;;;;;;;5380207;26;20866;-81
2024/04/18 11:15:23;;;;;;;1.10;0.37;;;;;;;;;;5380192;26;20484;-86
2024/04/18 11:17:49;;;;;;;2.37;0.60;;;;;;;;;;5382144;26;20582;-80
2024/04/18 11:20:15;;;;;;;1.23;0.90;;;;;;;;;;5380187;26;20443;-87
2024/04/18 11:22:41;;;;;;;1.20;0.60;;;;;;;;;;5380095;26;20517;-89
2024/04/18 11:25:07;;;;;;;2.23;0.93;;;;;;;;;;5383114;26;20492;-91
2024/04/18 11:27:39;;;;;;;3.07;1.30;;;;;;;;;;5383412;26;20447;-91
2024/04/18 11:30:06;;;;;;;2.73;1.30;;;;;;;;;;5382900;26;20494;-90
2024/04/18 11:32:32;;;;;;;2.37;0.50;;;;;;;;;;5382659;26;20955;-89
2024/04/18 11:34:58;;;;;;;4.03;1.93;;;;;;;;;;5383488;26;20494;-89
2024/04/18 11:37:24;;;;;;;2.47;0.90;;;;;;;;;;5382488;26;20454;-92
2024/04/18 11:39:50;;;;;;;5.10;1.20;;;;;;;;;;5383424;26;20583;-90
2024/04/18 11:42:16;;;;;;;3.10;1.20;;;;;;;;;;5381521;26;20509;-90
2024/04/18 11:44:44;;;;;;;3.17;1.00;;;;;;;;;;5383593;26;20226;-89
2024/04/18 11:47:10;;;;;;;2.63;0.97;;;;;;;;;;5381902;26;20474;-91
2024/04/18 11:49:36;;;;;;;2.70;1.50;;;;;;;;;;5382295;26;20911;-90
2024/04/18 11:52:02;;;;;;;2.20;0.70;;;;;;;;;;5382797;26;20264;-90
2024/04/18 11:54:28;;;;;;;3.67;0.77;;;;;;;;;;5382204;26;20328;-91
2024/04/18 11:56:55;;;;;;;3.53;0.50;;;;;;;;;;5382623;26;20850;-90
2024/04/18 11:59:21;;;;;;;2.63;1.17;;;;;;;;;;5381848;26;20781;-89
2024/04/18 12:01:46;;;;;;;3.17;1.23;;;;;;;;;;5382105;26;20448;-89
2024/04/18 12:04:12;;;;;;;4.10;1.63;;;;;;;;;;5382493;26;20219;-89
2024/04/18 12:06:39;;;;;;;3.03;1.07;;;;;;;;;;5380998;26;20685;-92
2024/04/18 12:09:05;;;;;;;2.97;0.70;;;;;;;;;;5381966;26;20454;-88
2024/04/18 12:11:31;;;;;;;3.53;0.53;;;;;;;;;;5381479;26;20562;-94
2024/04/18 12:13:57;;;;;;;2.57;0.87;;;;;;;;;;5381548;26;20337;-87
2024/04/18 12:16:24;;;;;;;1.10;0.37;;;;;;;;;;5381514;26;20458;-90
2024/04/18 12:18:51;;;;;;;2.47;0.50;;;;;;;;;;5382093;26;20736;-92
2024/04/18 12:21:17;;;;;;;2.10;0.57;;;;;;;;;;5381419;26;20470;-87
2024/04/18 12:23:43;;;;;;;1.67;0.63;;;;;;;;;;5380563;26;20450;-87
2024/04/18 12:26:12;;;;;;;2.07;0.30;;;;;;;;;;5384702;26;20803;-89
2024/04/18 12:28:38;;;;;;;1.63;0.30;;;;;;;;;;5385294;26;20446;-88
2024/04/18 12:31:04;;;;;;;2.83;0.63;;;;;;;;;;5386253;26;20537;-85
2024/04/18 12:33:30;;;;;;;1.53;0.60;;;;;;;;;;5407384;26;20508;-91
2024/04/18 12:35:56;;;;;;;2.10;0.33;;;;;;;;;;5408706;26;21087;-93
2024/04/18 12:38:22;;;;;;;1.73;0.50;;;;;;;;;;5383406;26;20223;-90
2024/04/18 12:40:48;;;;;;;4.60;0.70;;;;;;;;;;5385079;26;21007;-89
2024/04/18 12:43:16;;;;;;;2.73;0.47;;;;;;;;;;5406967;26;20508;-90
2024/04/18 12:45:42;;;;;;;3.23;0.50;;;;;;;;;;5413712;26;21106;-84
2024/04/18 12:48:08;;;;;;;1.47;0.27;;;;;;;;;;5391110;26;20476;-90
2024/04/18 12:50:34;;;;;;;0.47;0.30;;;;;;;;;;5420706;26;20463;-88
2024/04/18 12:53:00;;;;;;;0.50;0.20;;;;;;;;;;5421588;26;20502;-86
2024/04/18 12:55:27;;;;;;;1.00;0.33;;;;;;;;;;5421709;26;20503;-87
2024/04/18 12:57:53;;;;;;;1.90;0.30;;;;;;;;;;5422717;26;20216;-87
2024/04/18 13:00:19;;;;;;;1.07;0.20;;;;;;;;;;5423381;26;20491;-93
2024/04/18 13:02:45;;;;;;;0.93;0.30;;;;;;;;;;5422935;26;20449;-93
2024/04/18 13:05:11;;;;;;;2.97;0.77;;;;;;;;;;5424497;26;21033;-93
2024/04/18 13:07:37;;;;;;;1.00;0.23;;;;;;;;;;5424549;26;20441;-87
2024/04/18 13:10:05;;;;;;;0.90;0.30;;;;;;;;;;5421317;26;20508;-94
2024/04/18 13:12:31;;;;;;;0.67;0.20;;;;;;;;;;5421380;26;20492;-91
2024/04/18 13:14:57;;;;;;;0.80;0.20;;;;;;;;;;5421774;26;20451;-90
2024/04/18 13:17:23;;;;;;;1.43;0.20;;;;;;;;;;5421010;26;20556;-84
2024/04/18 13:19:51;;;;;;;1.70;0.20;;;;;;;;;;5419844;26;20579;-85
2024/04/18 13:22:17;;;;;;;0.80;0.27;;;;;;;;;;5413217;26;20466;-89
2024/04/18 13:24:43;;;;;;;1.37;0.30;;;;;;;;;;5406931;26;21042;-90
2024/04/18 13:27:08;;;;;;;4.40;0.50;;;;;;;;;;5418851;26;20243;-86
2024/04/18 13:29:34;;;;;;;1.93;0.40;;;;;;;;;;5419117;26;20223;-90
2024/04/18 13:32:00;;;;;;;1.83;0.27;;;;;;;;;;5418820;26;20473;-86
2024/04/18 13:34:27;;;;;;;2.00;0.70;;;;;;;;;;5418634;26;20340;-89
2024/04/18 13:36:53;;;;;;;0.93;0.30;;;;;;;;;;5418836;26;20223;-89
2024/04/18 13:39:19;;;;;;;2.23;0.33;;;;;;;;;;5407984;26;20518;-90
2024/04/18 13:41:46;;;;;;;2.40;0.90;;;;;;;;;;5384321;26;20590;-86
2024/04/18 13:44:11;;;;;;;1.00;0.40;;;;;;;;;;5384525;26;20593;-89
2024/04/18 13:46:38;;;;;;;1.37;0.43;;;;;;;;;;5383254;26;20473;-86
2024/04/18 13:49:03;;;;;;;3.70;0.30;;;;;;;;;;5383091;26;20238;-89
2024/04/18 13:51:29;;;;;;;1.90;0.43;;;;;;;;;;5384455;26;20504;-90
2024/04/18 13:53:56;;;;;;;1.73;0.40;;;;;;;;;;5382064;26;20581;-91
2024/04/18 13:56:22;;;;;;;2.47;0.40;;;;;;;;;;5408696;26;20270;-88
2024/04/18 13:58:48;;;;;;;2.73;0.80;;;;;;;;;;5419150;26;20508;-89
2024/04/18 14:01:14;;;;;;;1.30;0.40;;;;;;;;;;5419457;26;20449;-89
2024/04/18 14:03:40;;;;;;;3.33;0.80;;;;;;;;;;5418998;26;20229;-85
2024/04/18 14:06:07;;;;;;;1.80;0.50;;;;;;;;;;5419314;26;20561;-82
2024/04/18 14:08:33;;;;;;;3.03;0.40;;;;;;;;;;5419272;26;20455;-87
2024/04/18 14:10:58;;;;;;;1.77;0.37;;;;;;;;;;5419550;26;20490;-89
2024/04/18 14:13:24;;;;;;;1.77;0.20;;;;;;;;;;5419480;26;20441;-87
2024/04/18 14:18:48;;;;;;;2.63;0.30;;;;;;;;;;5419355;26;20314;-84
2024/04/18 14:21:14;;;;;;;2.63;0.30;;;;;;;;;;5419141;26;20514;-91
2024/04/18 14:23:40;;;;;;;2.30;0.60;;;;;;;;;;5417404;26;20449;-87
2024/04/18 14:26:05;;;;;;;2.80;0.20;;;;;;;;;;5419860;26;20302;-87
2024/04/18 14:28:31;;;;;;;5.23;0.30;;;;;;;;;;5420153;26;20224;-90
2024/04/18 14:30:57;;;;;;;1.23;0.33;;;;;;;;;;5419651;26;20504;-87
2024/04/18 14:33:23;;;;;;;2.10;0.93;;;;;;;;;;5419074;26;20464;-84
2024/04/18 14:35:49;;;;;;;0.90;0.40;;;;;;;;;;5419094;26;20505;-90
2024/04/18 14:38:15;;;;;;;0.73;0.27;;;;;;;;;;5403937;26;20301;-86
2024/04/18 14:40:41;;;;;;;1.33;0.30;;;;;;;;;;5382979;26;20267;-89
2024/04/18 14:43:07;;;;;;;1.83;0.30;;;;;;;;;;5385632;26;20452;-93